Time;durP1;ratioP1;P1;durP2;ratioP2;P2;SDS_P1;SDS_P2;PMS_P1;PMS_P2;Temp;Humidity;BMP_temperature;BMP_pressure;BME280_temperature;BME280_humidity;BME280_pressure;Samples;Min_cycle;Max_cycle;Signal;HPM_P1;HPM_P2
2021/04/20 00:00:17;;;;;;;;;;;2.70;96.00;;;;;;5031029;28;20008;-68
2021/04/20 00:02:43;;;;;;;;;;;2.70;95.90;;;;;;5024843;28;19922;-68
2021/04/20 00:05:14;;;;;;;;;;;2.60;95.90;;;;;;5028580;28;19975;-67
2021/04/20 00:07:39;;;;;;;;;;;2.60;95.90;;;;;;5021780;28;19913;-68
2021/04/20 00:10:06;;;;;;;;;;;2.60;95.90;;;;;;5022585;28;20333;-68
2021/04/20 00:12:35;;;;;;;;;;;2.60;95.90;;;;;;5024177;28;19921;-68
2021/04/20 00:15:01;;;;;;;;;;;2.60;95.90;;;;;;5024315;28;19921;-69
2021/04/20 00:17:27;;;;;;;;;;;2.50;96.00;;;;;;5021859;28;19913;-68
2021/04/20 00:19:52;;;;;;;;;;;2.40;95.90;;;;;;5026368;28;20321;-68
2021/04/20 00:22:18;;;;;;;;;;;2.40;95.80;;;;;;5021878;28;19921;-70
2021/04/20 00:24:43;;;;;;;;;;;2.40;95.90;;;;;;5022385;28;20326;-69
2021/04/20 00:27:09;;;;;;;;;;;2.40;96.00;;;;;;5025790;28;19951;-69
2021/04/20 00:29:34;;;;;;;;;;;2.30;96.00;;;;;;5022530;28;19925;-69
2021/04/20 00:32:00;;;;;;;;;;;2.30;96.00;;;;;;5023458;28;20311;-69
2021/04/20 00:34:26;;;;;;;;;;;2.30;96.00;;;;;;5024142;28;19920;-68
2021/04/20 00:36:51;;;;;;;;;;;2.20;95.90;;;;;;5022225;28;19961;-69
2021/04/20 00:39:17;;;;;;;;;;;2.20;95.90;;;;;;5023396;28;20377;-70
2021/04/20 00:41:42;;;;;;;;;;;2.20;95.90;;;;;;5021761;28;20004;-69
2021/04/20 00:44:08;;;;;;;;;;;2.20;95.90;;;;;;5021720;28;19917;-68
2021/04/20 00:46:34;;;;;;;;;;;2.20;95.90;;;;;;5024625;28;19917;-69
2021/04/20 00:48:59;;;;;;;;;;;2.20;96.00;;;;;;5025608;28;20311;-71
2021/04/20 00:51:25;;;;;;;;;;;2.20;95.90;;;;;;5027446;28;20338;-70
2021/04/20 00:53:51;;;;;;;;;;;2.20;95.90;;;;;;5023022;28;20240;-69
2021/04/20 00:56:18;;;;;;;;;;;2.20;96.00;;;;;;5025511;28;19921;-69
2021/04/20 00:58:47;;;;;;;;;;;2.10;96.00;;;;;;5027166;28;19921;-68
2021/04/20 01:01:13;;;;;;;;;;;2.10;95.90;;;;;;5010067;28;19917;-68
2021/04/20 01:03:38;;;;;;;;;;;2.10;95.90;;;;;;5024428;28;19914;-68
2021/04/20 01:06:04;;;;;;;;;;;2.20;95.90;;;;;;5035847;28;20340;-68
2021/04/20 01:08:30;;;;;;;;;;;2.20;95.90;;;;;;5014791;28;19921;-68
2021/04/20 01:10:57;;;;;;;;;;;2.10;95.90;;;;;;5036029;28;19917;-67
2021/04/20 01:13:29;;;;;;;;;;;2.00;96.00;;;;;;5038188;28;19952;-68
2021/04/20 01:15:56;;;;;;;;;;;1.90;95.80;;;;;;5013863;28;19922;-68
2021/04/20 01:18:24;;;;;;;;;;;2.00;95.80;;;;;;5029735;28;19921;-70
2021/04/20 01:20:51;;;;;;;;;;;1.90;95.90;;;;;;5027680;28;19917;-71
2021/04/20 01:23:25;;;;;;;;;;;1.90;95.90;;;;;;5030070;28;20011;-71
2021/04/20 01:25:50;;;;;;;;;;;1.90;95.80;;;;;;5028739;28;19922;-71
2021/04/20 01:28:16;;;;;;;;;;;1.90;95.90;;;;;;5026709;28;19921;-71
2021/04/20 01:30:42;;;;;;;;;;;1.90;95.90;;;;;;5028841;28;19945;-71
2021/04/20 01:33:09;;;;;;;;;;;1.90;95.90;;;;;;5028847;28;19921;-71
2021/04/20 01:35:35;;;;;;;;;;;1.80;95.80;;;;;;5029565;28;19924;-71
2021/04/20 01:38:02;;;;;;;;;;;1.70;95.90;;;;;;5027373;28;20020;-71
2021/04/20 01:40:27;;;;;;;;;;;1.70;96.00;;;;;;5029774;28;19929;-71
2021/04/20 01:42:53;;;;;;;;;;;1.60;96.00;;;;;;5028418;28;19955;-71
2021/04/20 01:45:20;;;;;;;;;;;1.60;95.80;;;;;;5028000;28;20002;-71
2021/04/20 01:47:47;;;;;;;;;;;1.70;96.00;;;;;;5028386;28;19956;-70
2021/04/20 01:50:12;;;;;;;;;;;1.70;96.00;;;;;;5031576;28;19920;-71
2021/04/20 01:52:41;;;;;;;;;;;1.70;96.00;;;;;;5034537;28;19913;-70
2021/04/20 01:55:06;;;;;;;;;;;1.70;96.00;;;;;;5018093;28;19930;-70
2021/04/20 01:57:32;;;;;;;;;;;1.70;96.00;;;;;;5016838;28;20409;-71
2021/04/20 01:59:57;;;;;;;;;;;1.70;96.00;;;;;;5003159;28;19921;-70
2021/04/20 02:02:23;;;;;;;;;;;1.80;96.00;;;;;;5019469;28;20029;-70
2021/04/20 02:04:49;;;;;;;;;;;1.70;96.10;;;;;;5021756;28;19925;-68
2021/04/20 02:07:16;;;;;;;;;;;1.70;96.10;;;;;;5019927;28;19932;-70
2021/04/20 02:09:41;;;;;;;;;;;1.70;96.00;;;;;;5022974;28;19931;-70
2021/04/20 02:12:07;;;;;;;;;;;1.60;96.00;;;;;;5022162;28;20233;-70
2021/04/20 02:14:33;;;;;;;;;;;1.60;96.10;;;;;;5012225;28;19917;-70
2021/04/20 02:17:02;;;;;;;;;;;1.60;96.00;;;;;;5016594;28;19921;-70
2021/04/20 02:19:29;;;;;;;;;;;1.60;96.10;;;;;;5017560;28;19925;-70
2021/04/20 02:21:55;;;;;;;;;;;1.70;96.10;;;;;;5023725;28;19940;-71
2021/04/20 02:24:20;;;;;;;;;;;1.70;96.10;;;;;;4998910;28;19913;-71
2021/04/20 02:26:46;;;;;;;;;;;1.70;96.20;;;;;;5016621;28;19921;-70
2021/04/20 02:29:12;;;;;;;;;;;1.70;96.10;;;;;;5012697;28;20239;-71
2021/04/20 02:31:39;;;;;;;;;;;1.70;96.10;;;;;;5017793;28;19921;-69
2021/04/20 02:34:05;;;;;;;;;;;1.70;96.20;;;;;;5019162;28;19928;-69
2021/04/20 02:36:31;;;;;;;;;;;1.70;96.10;;;;;;5017926;28;19921;-71
2021/04/20 02:38:56;;;;;;;;;;;1.80;96.10;;;;;;4996559;28;19913;-71
2021/04/20 02:41:24;;;;;;;;;;;1.80;96.10;;;;;;5014739;28;19925;-70
2021/04/20 02:43:49;;;;;;;;;;;1.80;96.10;;;;;;5014643;28;20427;-70
2021/04/20 02:46:15;;;;;;;;;;;1.70;96.20;;;;;;5016515;28;19919;-69
2021/04/20 02:48:41;;;;;;;;;;;1.70;96.10;;;;;;5011805;28;19913;-70
2021/04/20 02:51:10;;;;;;;;;;;1.60;96.10;;;;;;5016425;28;19953;-70
2021/04/20 02:53:36;;;;;;;;;;;1.60;96.00;;;;;;5016513;28;19939;-69
2021/04/20 02:56:01;;;;;;;;;;;1.60;96.00;;;;;;5027507;28;20304;-70
2021/04/20 02:58:28;;;;;;;;;;;1.50;96.10;;;;;;5029948;28;19917;-70
2021/04/20 03:01:00;;;;;;;;;;;1.50;96.10;;;;;;5030726;28;19921;-69
2021/04/20 03:03:26;;;;;;;;;;;1.40;96.00;;;;;;5031289;28;19971;-70
2021/04/20 03:05:51;;;;;;;;;;;1.40;96.00;;;;;;5030190;28;19929;-71
2021/04/20 03:08:17;;;;;;;;;;;1.50;96.00;;;;;;5009212;28;19921;-71
2021/04/20 03:10:44;;;;;;;;;;;1.50;96.10;;;;;;5030520;28;21695;-71
2021/04/20 03:13:09;;;;;;;;;;;1.50;96.10;;;;;;5029325;28;19913;-71
2021/04/20 03:15:35;;;;;;;;;;;1.40;96.00;;;;;;5030505;28;19932;-71
2021/04/20 03:18:01;;;;;;;;;;;1.30;96.10;;;;;;5029410;28;19921;-71
2021/04/20 03:20:27;;;;;;;;;;;1.30;96.10;;;;;;5028738;28;19936;-70
2021/04/20 03:22:58;;;;;;;;;;;1.10;96.10;;;;;;5029012;28;19920;-71
2021/04/20 03:25:28;;;;;;;;;;;1.00;96.00;;;;;;5029671;28;19921;-71
2021/04/20 03:27:55;;;;;;;;;;;0.90;96.00;;;;;;5011174;28;20044;-70
2021/04/20 03:30:25;;;;;;;;;;;1.10;95.90;;;;;;5031111;28;19948;-71
2021/04/20 03:33:12;;;;;;;;;;;1.20;96.20;;;;;;5027152;28;19921;-70
2021/04/20 03:35:56;;;;;;;;;;;1.20;96.20;;;;;;5030121;28;19951;-71
2021/04/20 03:38:40;;;;;;;;;;;1.20;96.20;;;;;;5026314;28;19921;-71
2021/04/20 03:41:14;;;;;;;;;;;1.30;96.10;;;;;;5028020;28;20059;-71
2021/04/20 03:43:42;;;;;;;;;;;1.30;96.20;;;;;;5028819;28;19963;-71
2021/04/20 03:46:09;;;;;;;;;;;1.30;96.10;;;;;;5031559;28;19921;-70
2021/04/20 03:48:36;;;;;;;;;;;1.40;96.10;;;;;;5030020;28;19964;-70
2021/04/20 03:51:07;;;;;;;;;;;1.40;96.10;;;;;;5028467;28;20214;-71
2021/04/20 03:53:34;;;;;;;;;;;1.40;96.10;;;;;;5041606;28;20002;-70
2021/04/20 03:56:01;;;;;;;;;;;1.30;96.20;;;;;;5031709;28;19921;-70
2021/04/20 03:58:28;;;;;;;;;;;1.30;96.20;;;;;;5027277;28;19913;-71
2021/04/20 04:00:56;;;;;;;;;;;1.30;96.20;;;;;;5047168;28;19917;-71
2021/04/20 04:03:23;;;;;;;;;;;1.30;96.20;;;;;;5026522;28;19919;-69
2021/04/20 04:05:50;;;;;;;;;;;1.30;96.20;;;;;;5029437;28;20213;-70
2021/04/20 04:08:16;;;;;;;;;;;1.30;96.20;;;;;;5008849;28;19957;-70
2021/04/20 04:10:43;;;;;;;;;;;1.40;96.20;;;;;;5028938;28;21243;-70
2021/04/20 04:13:10;;;;;;;;;;;1.40;96.20;;;;;;5029385;28;19921;-71
2021/04/20 04:15:36;;;;;;;;;;;1.30;96.20;;;;;;5028852;28;19933;-67
2021/04/20 04:18:04;;;;;;;;;;;1.20;96.20;;;;;;5027088;28;19924;-67
2021/04/20 04:20:30;;;;;;;;;;;1.10;96.20;;;;;;5026966;28;19929;-67
2021/04/20 04:23:01;;;;;;;;;;;1.00;96.00;;;;;;5009610;28;19921;-69
2021/04/20 04:25:31;;;;;;;;;;;1.00;96.00;;;;;;5026993;28;21516;-70
2021/04/20 04:27:58;;;;;;;;;;;1.00;96.10;;;;;;5028021;28;19921;-70
2021/04/20 04:30:24;;;;;;;;;;;1.00;96.10;;;;;;5028086;28;19921;-70
2021/04/20 04:32:51;;;;;;;;;;;1.10;96.20;;;;;;5027566;28;19921;-70
2021/04/20 04:35:17;;;;;;;;;;;1.20;96.20;;;;;;5028364;28;19918;-71
2021/04/20 04:37:43;;;;;;;;;;;1.30;96.30;;;;;;5027825;28;19917;-70
2021/04/20 04:40:09;;;;;;;;;;;1.20;96.40;;;;;;5027788;28;19936;-70
2021/04/20 04:42:35;;;;;;;;;;;1.20;96.20;;;;;;5030113;28;20316;-71
2021/04/20 04:45:10;;;;;;;;;;;1.20;96.20;;;;;;5029323;28;19932;-70
2021/04/20 04:47:37;;;;;;;;;;;1.20;96.20;;;;;;5032927;28;19913;-71
2021/04/20 04:50:04;;;;;;;;;;;1.20;96.20;;;;;;5033111;28;20361;-70
2021/04/20 04:52:30;;;;;;;;;;;1.20;96.20;;;;;;5031270;28;19991;-71
2021/04/20 04:54:59;;;;;;;;;;;1.20;96.30;;;;;;5024176;28;20346;-71
2021/04/20 04:57:25;;;;;;;;;;;1.20;96.30;;;;;;5025172;28;19921;-70
2021/04/20 04:59:53;;;;;;;;;;;1.20;96.20;;;;;;5035956;28;20022;-71
2021/04/20 05:02:19;;;;;;;;;;;1.10;96.20;;;;;;5025744;28;19913;-71
2021/04/20 05:04:53;;;;;;;;;;;1.10;96.20;;;;;;5022489;28;20376;-71
2021/04/20 05:07:22;;;;;;;;;;;1.00;96.10;;;;;;5022418;28;19921;-70
2021/04/20 05:09:48;;;;;;;;;;;1.20;96.30;;;;;;5022344;28;19921;-69
2021/04/20 05:12:17;;;;;;;;;;;1.40;96.50;;;;;;5022886;28;20428;-70
2021/04/20 05:14:43;;;;;;;;;;;1.50;96.50;;;;;;5021983;28;19983;-68
2021/04/20 05:17:11;;;;;;;;;;;1.60;96.60;;;;;;5023835;28;20326;-70
2021/04/20 05:19:38;;;;;;;;;;;1.70;96.50;;;;;;5021508;28;19924;-70
2021/04/20 05:22:04;;;;;;;;;;;1.70;96.50;;;;;;5023890;28;19944;-71
2021/04/20 05:24:29;;;;;;;;;;;1.80;96.60;;;;;;5023504;28;19921;-70
2021/04/20 05:26:55;;;;;;;;;;;1.80;96.50;;;;;;5005777;28;20278;-71
2021/04/20 05:29:21;;;;;;;;;;;1.80;96.50;;;;;;5028047;28;19913;-70
2021/04/20 05:31:46;;;;;;;;;;;1.90;96.40;;;;;;5023854;28;19952;-71
2021/04/20 05:34:12;;;;;;;;;;;1.90;96.50;;;;;;5023289;28;19921;-71
2021/04/20 05:36:38;;;;;;;;;;;2.00;96.50;;;;;;5023013;28;19952;-71
2021/04/20 05:39:07;;;;;;;;;;;2.10;96.60;;;;;;5021401;28;19964;-71
2021/04/20 05:41:34;;;;;;;;;;;2.20;96.70;;;;;;5021763;28;19926;-71
2021/04/20 05:44:00;;;;;;;;;;;2.10;96.50;;;;;;5027134;28;19913;-71
2021/04/20 05:46:26;;;;;;;;;;;2.10;96.40;;;;;;5028087;28;19913;-69
2021/04/20 05:48:52;;;;;;;;;;;2.10;96.30;;;;;;5025386;28;20531;-71
2021/04/20 05:51:22;;;;;;;;;;;2.20;96.40;;;;;;5027748;28;19971;-69
2021/04/20 05:53:49;;;;;;;;;;;2.40;96.40;;;;;;4999054;28;20222;-69
2021/04/20 05:56:16;;;;;;;;;;;2.60;96.30;;;;;;5008400;28;19914;-70
2021/04/20 05:58:41;;;;;;;;;;;2.80;96.60;;;;;;5009941;28;19921;-72
2021/04/20 06:01:07;;;;;;;;;;;3.00;96.70;;;;;;5006047;28;19996;-72
2021/04/20 06:03:37;;;;;;;;;;;3.00;96.40;;;;;;5005499;28;20020;-71
2021/04/20 06:06:03;;;;;;;;;;;3.10;96.30;;;;;;5007130;28;19921;-71
2021/04/20 06:08:33;;;;;;;;;;;3.20;96.30;;;;;;5008455;28;19925;-71
2021/04/20 06:10:59;;;;;;;;;;;3.30;96.10;;;;;;5004526;28;19968;-71
2021/04/20 06:13:27;;;;;;;;;;;3.50;96.40;;;;;;5009670;28;20318;-70
2021/04/20 06:15:56;;;;;;;;;;;3.60;96.30;;;;;;5015002;28;19919;-71
2021/04/20 06:18:23;;;;;;;;;;;3.70;96.30;;;;;;5006264;28;19922;-72
2021/04/20 06:20:49;;;;;;;;;;;3.80;96.30;;;;;;5008830;28;19926;-72
2021/04/20 06:23:15;;;;;;;;;;;3.90;96.30;;;;;;5008205;28;20004;-70
2021/04/20 06:25:43;;;;;;;;;;;4.10;96.30;;;;;;5014297;28;20565;-71
2021/04/20 06:28:10;;;;;;;;;;;4.20;96.40;;;;;;5005198;28;19979;-71
2021/04/20 06:30:37;;;;;;;;;;;4.20;96.30;;;;;;5009421;28;20273;-71
2021/04/20 06:33:04;;;;;;;;;;;4.20;96.30;;;;;;5012271;28;19928;-71
2021/04/20 06:35:34;;;;;;;;;;;4.30;96.30;;;;;;5009414;28;20314;-71
2021/04/20 06:38:03;;;;;;;;;;;4.30;96.30;;;;;;5015116;28;19961;-72
2021/04/20 06:40:40;;;;;;;;;;;4.40;96.40;;;;;;5015935;28;19921;-71
2021/04/20 06:43:10;;;;;;;;;;;4.50;96.40;;;;;;5012912;28;19933;-71
2021/04/20 06:45:38;;;;;;;;;;;4.70;96.30;;;;;;5010857;28;19964;-71
2021/04/20 06:48:36;;;;;;;;;;;4.80;96.30;;;;;;5011844;28;19922;-71
2021/04/20 06:51:03;;;;;;;;;;;4.70;96.30;;;;;;4989924;28;19921;-71
2021/04/20 06:53:37;;;;;;;;;;;4.80;96.10;;;;;;5009396;28;19921;-70
2021/04/20 06:56:05;;;;;;;;;;;4.90;95.90;;;;;;4999165;28;20325;-70
2021/04/20 06:58:50;;;;;;;;;;;5.10;96.10;;;;;;5018053;28;19986;-70
2021/04/20 07:01:18;;;;;;;;;;;5.30;96.00;;;;;;5016331;28;19935;-71
2021/04/20 07:04:02;;;;;;;;;;;5.50;95.80;;;;;;5014457;28;19917;-71
2021/04/20 07:06:30;;;;;;;;;;;5.60;95.90;;;;;;5020942;28;20340;-71
2021/04/20 07:08:56;;;;;;;;;;;5.60;95.90;;;;;;5017648;28;19921;-71
2021/04/20 07:11:23;;;;;;;;;;;5.70;96.00;;;;;;5022415;28;20002;-71
2021/04/20 07:13:51;;;;;;;;;;;5.70;96.30;;;;;;5011812;28;19927;-72
2021/04/20 07:16:28;;;;;;;;;;;5.80;96.50;;;;;;5012192;28;19914;-71
2021/04/20 07:19:13;;;;;;;;;;;5.80;96.50;;;;;;5006682;28;20326;-70
2021/04/20 07:21:57;;;;;;;;;;;5.90;96.60;;;;;;5007838;28;19931;-71
2021/04/20 07:24:34;;;;;;;;;;;6.10;97.00;;;;;;5006683;28;19993;-71
2021/04/20 07:27:02;;;;;;;;;;;6.10;97.80;;;;;;5005082;28;20009;-71
2021/04/20 07:29:48;;;;;;;;;;;6.20;97.50;;;;;;5015262;28;19913;-71
2021/04/20 07:32:32;;;;;;;;;;;6.40;97.60;;;;;;4995576;28;20360;-70
2021/04/20 07:35:10;;;;;;;;;;;6.70;97.90;;;;;;5008660;28;19945;-70
2021/04/20 07:37:54;;;;;;;;;;;6.90;98.00;;;;;;5014426;28;20281;-71
2021/04/20 07:40:38;;;;;;;;;;;7.20;98.00;;;;;;4990932;28;19925;-71
2021/04/20 07:43:13;;;;;;;;;;;7.20;97.50;;;;;;5019430;28;20230;-71
2021/04/20 07:45:55;;;;;;;;;;;7.40;98.00;;;;;;5016168;28;19914;-72
2021/04/20 07:48:39;;;;;;;;;;;7.60;97.60;;;;;;5017607;28;19940;-71
2021/04/20 07:51:11;;;;;;;;;;;7.90;98.00;;;;;;4999315;28;19921;-71
2021/04/20 07:53:43;;;;;;;;;;;8.40;98.00;;;;;;5021830;28;20012;-71
2021/04/20 07:56:19;;;;;;;;;;;9.30;96.90;;;;;;5019565;28;19920;-71
2021/04/20 07:58:48;;;;;;;;;;;10.50;96.90;;;;;;5022954;28;19917;-71
2021/04/20 08:01:38;;;;;;;;;;;11.50;94.80;;;;;;5018891;28;19930;-70
2021/04/20 08:04:03;;;;;;;;;;;12.30;90.60;;;;;;5019628;28;19921;-71
2021/04/20 08:06:29;;;;;;;;;;;12.60;88.10;;;;;;5019480;28;19929;-71
2021/04/20 08:09:18;;;;;;;;;;;13.00;87.20;;;;;;5017789;28;19983;-70
2021/04/20 08:11:45;;;;;;;;;;;12.80;86.70;;;;;;5020752;28;19960;-69
2021/04/20 08:14:15;;;;;;;;;;;12.00;87.50;;;;;;5021116;28;20373;-69
2021/04/20 08:17:02;;;;;;;;;;;10.80;90.80;;;;;;5025407;28;20208;-68
2021/04/20 08:19:37;;;;;;;;;;;10.80;92.90;;;;;;5020037;28;19935;-71
2021/04/20 08:22:04;;;;;;;;;;;11.30;90.70;;;;;;5021671;28;19925;-69
2021/04/20 08:24:49;;;;;;;;;;;11.40;89.50;;;;;;5022086;28;19921;-70
2021/04/20 08:27:18;;;;;;;;;;;11.90;88.90;;;;;;5007766;28;21537;-69
2021/04/20 08:29:46;;;;;;;;;;;12.20;87.30;;;;;;5020466;28;19924;-69
2021/04/20 08:32:15;;;;;;;;;;;10.90;89.90;;;;;;5023207;28;20222;-69
2021/04/20 08:34:43;;;;;;;;;;;10.40;92.70;;;;;;5020097;28;19929;-70
2021/04/20 08:37:12;;;;;;;;;;;11.50;91.30;;;;;;5020117;28;20014;-70
2021/04/20 08:39:40;;;;;;;;;;;12.70;88.10;;;;;;5020078;28;20247;-70
2021/04/20 08:42:39;;;;;;;;;;;13.70;84.10;;;;;;5022535;28;19921;-68
2021/04/20 08:45:17;;;;;;;;;;;13.90;83.80;;;;;;4993029;28;19913;-69
2021/04/20 08:48:03;;;;;;;;;;;13.70;81.80;;;;;;5023266;28;19913;-69
2021/04/20 08:50:32;;;;;;;;;;;12.20;84.70;;;;;;5021849;28;19917;-69
2021/04/20 08:53:01;;;;;;;;;;;11.30;89.00;;;;;;5017583;28;19917;-70
2021/04/20 08:55:46;;;;;;;;;;;10.70;90.20;;;;;;5009957;28;19936;-69
2021/04/20 08:58:14;;;;;;;;;;;10.10;92.20;;;;;;5029394;28;21327;-71
2021/04/20 09:00:45;;;;;;;;;;;9.60;93.70;;;;;;5021010;28;19925;-70
2021/04/20 09:03:20;;;;;;;;;;;9.70;94.70;;;;;;5025430;28;20344;-70
2021/04/20 09:05:50;;;;;;;;;;;10.10;93.70;;;;;;5024998;28;19921;-69
2021/04/20 09:08:29;;;;;;;;;;;10.40;92.70;;;;;;5027101;28;19925;-70
2021/04/20 09:11:07;;;;;;;;;;;10.70;92.30;;;;;;5028876;28;19925;-69
2021/04/20 09:13:56;;;;;;;;;;;10.70;92.10;;;;;;5028817;28;19953;-70
2021/04/20 09:16:25;;;;;;;;;;;10.90;91.90;;;;;;5031320;28;19920;-70
2021/04/20 09:18:51;;;;;;;;;;;11.50;89.70;;;;;;5034236;28;19920;-70
2021/04/20 09:21:35;;;;;;;;;;;11.50;90.50;;;;;;5028076;28;19920;-70
2021/04/20 09:24:06;;;;;;;;;;;11.40;90.20;;;;;;5027274;28;19921;-70
2021/04/20 09:26:38;;;;;;;;;;;11.40;89.20;;;;;;5029200;28;19913;-70
2021/04/20 09:29:16;;;;;;;;;;;11.50;89.70;;;;;;5028659;28;20272;-70
2021/04/20 09:31:51;;;;;;;;;;;11.90;89.10;;;;;;5029296;28;19921;-69
2021/04/20 09:34:21;;;;;;;;;;;12.00;88.20;;;;;;5011313;28;19917;-70
2021/04/20 09:36:50;;;;;;;;;;;12.30;87.10;;;;;;5032022;28;20036;-68
2021/04/20 09:39:19;;;;;;;;;;;12.30;87.70;;;;;;5012663;28;19921;-70
2021/04/20 09:41:46;;;;;;;;;;;12.30;86.70;;;;;;5037141;28;19921;-68
2021/04/20 09:44:39;;;;;;;;;;;12.40;87.50;;;;;;5035510;28;19963;-67
2021/04/20 09:47:27;;;;;;;;;;;14.10;81.60;;;;;;5035245;28;19919;-68
2021/04/20 09:50:04;;;;;;;;;;;15.30;77.80;;;;;;5018956;28;19963;-67
2021/04/20 09:52:45;;;;;;;;;;;16.60;74.30;;;;;;5031092;28;20007;-67
2021/04/20 09:55:23;;;;;;;;;;;17.20;71.70;;;;;;5010056;28;19940;-66
2021/04/20 09:57:52;;;;;;;;;;;17.50;69.90;;;;;;5032246;28;19940;-67
2021/04/20 10:00:18;;;;;;;;;;;17.20;69.60;;;;;;5033326;28;20265;-67
2021/04/20 10:02:53;;;;;;;;;;;16.20;71.10;;;;;;5027544;28;19940;-67
2021/04/20 10:05:37;;;;;;;;;;;15.50;72.40;;;;;;5035830;28;19917;-67
2021/04/20 10:08:21;;;;;;;;;;;16.00;72.80;;;;;;5033323;28;19923;-67
2021/04/20 10:11:06;;;;;;;;;;;16.60;70.10;;;;;;5013732;28;20314;-67
2021/04/20 10:13:50;;;;;;;;;;;17.20;69.40;;;;;;5033330;28;20370;-67
2021/04/20 10:16:23;;;;;;;;;;;17.20;68.40;;;;;;5034354;28;20306;-67
2021/04/20 10:19:11;;;;;;;;;;;17.50;66.40;;;;;;5030666;28;19967;-67
2021/04/20 10:21:56;;;;;;;;;;;18.20;68.10;;;;;;5031263;28;19952;-67
2021/04/20 10:24:24;;;;;;;;;;;17.80;65.20;;;;;;5030240;28;19921;-67
2021/04/20 10:26:56;;;;;;;;;;;16.60;67.30;;;;;;5034904;28;20012;-66
2021/04/20 10:29:31;;;;;;;;;;;16.80;68.10;;;;;;5036552;28;19924;-68
2021/04/20 10:32:05;;;;;;;;;;;16.60;67.90;;;;;;5031536;28;19924;-68
2021/04/20 10:34:34;;;;;;;;;;;16.00;70.70;;;;;;5013532;28;19913;-68
2021/04/20 10:37:00;;;;;;;;;;;15.40;70.00;;;;;;5037100;28;19913;-68
2021/04/20 10:39:26;;;;;;;;;;;14.80;72.50;;;;;;5033983;28;19913;-67
2021/04/20 10:41:53;;;;;;;;;;;14.80;71.60;;;;;;5031669;28;19981;-68
2021/04/20 10:44:20;;;;;;;;;;;14.70;73.00;;;;;;5030933;28;20047;-68
2021/04/20 10:46:52;;;;;;;;;;;14.70;72.30;;;;;;5028838;28;19921;-67
2021/04/20 10:49:19;;;;;;;;;;;14.60;72.90;;;;;;5031255;28;20338;-68
2021/04/20 10:51:46;;;;;;;;;;;14.50;72.50;;;;;;5028051;28;19921;-68
2021/04/20 10:54:12;;;;;;;;;;;14.80;72.80;;;;;;5024847;28;19936;-68
2021/04/20 10:56:45;;;;;;;;;;;15.80;71.20;;;;;;5023298;28;20532;-67
2021/04/20 10:59:23;;;;;;;;;;;17.20;68.00;;;;;;5024068;28;19917;-68
2021/04/20 11:01:48;;;;;;;;;;;18.30;65.50;;;;;;5022172;28;19917;-68
2021/04/20 11:04:20;;;;;;;;;;;17.70;64.10;;;;;;5021999;28;20313;-68
2021/04/20 11:06:46;;;;;;;;;;;16.40;67.50;;;;;;5021173;28;19913;-68
2021/04/20 11:09:14;;;;;;;;;;;15.60;70.40;;;;;;5019850;28;19959;-68
2021/04/20 11:11:39;;;;;;;;;;;15.70;71.80;;;;;;5019284;28;20182;-67
2021/04/20 11:14:05;;;;;;;;;;;16.00;69.40;;;;;;5006756;28;20059;-67
2021/04/20 11:16:34;;;;;;;;;;;15.90;70.00;;;;;;5020826;28;20211;-67
2021/04/20 11:19:05;;;;;;;;;;;15.60;70.50;;;;;;5023382;28;20230;-66
2021/04/20 11:21:34;;;;;;;;;;;15.10;71.70;;;;;;5021910;28;20329;-66
2021/04/20 11:24:03;;;;;;;;;;;14.70;70.60;;;;;;5002415;28;19929;-67
2021/04/20 11:26:32;;;;;;;;;;;14.90;72.30;;;;;;5020400;28;19921;-68
2021/04/20 11:29:01;;;;;;;;;;;15.40;71.40;;;;;;5004995;28;19913;-67
2021/04/20 11:31:35;;;;;;;;;;;16.00;68.90;;;;;;5024270;28;20231;-67
2021/04/20 11:34:09;;;;;;;;;;;16.00;69.00;;;;;;5020020;28;19971;-67
2021/04/20 11:36:41;;;;;;;;;;;15.80;68.20;;;;;;5009600;28;19913;-67
2021/04/20 11:39:08;;;;;;;;;;;15.90;68.20;;;;;;5014593;28;20000;-67
2021/04/20 11:41:37;;;;;;;;;;;16.60;67.70;;;;;;5018858;28;19925;-67
2021/04/20 11:44:04;;;;;;;;;;;16.40;67.60;;;;;;5020225;28;19921;-67
2021/04/20 11:46:31;;;;;;;;;;;16.40;69.20;;;;;;5023885;28;19948;-67
2021/04/20 11:49:06;;;;;;;;;;;16.20;69.30;;;;;;5020786;28;19913;-67
2021/04/20 11:51:33;;;;;;;;;;;16.30;67.50;;;;;;5015777;28;19922;-67
2021/04/20 11:53:59;;;;;;;;;;;16.60;67.80;;;;;;5016020;28;19943;-66
2021/04/20 11:56:25;;;;;;;;;;;17.20;65.60;;;;;;5014374;28;19959;-67
2021/04/20 11:58:55;;;;;;;;;;;17.50;65.50;;;;;;5015295;28;19921;-66
2021/04/20 12:01:22;;;;;;;;;;;16.80;65.90;;;;;;5019917;28;19925;-67
2021/04/20 12:03:47;;;;;;;;;;;16.40;66.30;;;;;;5018622;28;19947;-67
2021/04/20 12:06:13;;;;;;;;;;;16.10;68.00;;;;;;5022307;28;20003;-67
2021/04/20 12:08:42;;;;;;;;;;;16.00;67.60;;;;;;5019273;28;19917;-67
2021/04/20 12:11:08;;;;;;;;;;;15.40;68.30;;;;;;5019099;28;19920;-66
2021/04/20 12:13:35;;;;;;;;;;;15.10;70.20;;;;;;5029364;28;19917;-66
2021/04/20 12:16:03;;;;;;;;;;;15.00;70.20;;;;;;5015978;28;20511;-66
2021/04/20 12:18:30;;;;;;;;;;;15.30;68.80;;;;;;5034873;28;19917;-67
2021/04/20 12:20:59;;;;;;;;;;;16.00;70.20;;;;;;5035802;28;19913;-66
2021/04/20 12:23:25;;;;;;;;;;;17.30;65.40;;;;;;5019838;28;19914;-66
2021/04/20 12:25:51;;;;;;;;;;;18.50;63.80;;;;;;5016081;28;20008;-66
2021/04/20 12:28:18;;;;;;;;;;;18.80;64.00;;;;;;5016681;28;19996;-66
2021/04/20 12:30:48;;;;;;;;;;;18.50;62.00;;;;;;5015975;28;19996;-67
2021/04/20 12:33:39;;;;;;;;;;;17.30;64.00;;;;;;5015921;28;19913;-66
2021/04/20 12:36:05;;;;;;;;;;;15.80;65.90;;;;;;5013686;28;20008;-67
2021/04/20 12:38:32;;;;;;;;;;;14.80;68.10;;;;;;5014870;28;20003;-66
2021/04/20 12:41:01;;;;;;;;;;;14.50;71.20;;;;;;5015843;28;19990;-67
2021/04/20 12:43:27;;;;;;;;;;;14.20;71.60;;;;;;5015833;28;19910;-67
2021/04/20 12:46:11;;;;;;;;;;;14.30;72.00;;;;;;5019064;28;19924;-67
2021/04/20 12:48:39;;;;;;;;;;;14.40;71.60;;;;;;4996175;28;20226;-68
2021/04/20 12:51:06;;;;;;;;;;;14.90;72.40;;;;;;4996371;28;19949;-67
2021/04/20 12:53:33;;;;;;;;;;;16.20;68.10;;;;;;4993714;28;19918;-67
2021/04/20 12:55:59;;;;;;;;;;;16.50;67.40;;;;;;4995947;28;20000;-67
2021/04/20 12:58:26;;;;;;;;;;;16.50;66.50;;;;;;5013499;28;19917;-67
2021/04/20 13:01:18;;;;;;;;;;;17.10;66.80;;;;;;5015644;28;19952;-67
2021/04/20 13:03:44;;;;;;;;;;;18.20;63.80;;;;;;5010913;28;19917;-68
2021/04/20 13:06:10;;;;;;;;;;;17.10;62.80;;;;;;5015715;28;19917;-69
2021/04/20 13:08:47;;;;;;;;;;;16.30;66.70;;;;;;5016500;28;19921;-70
2021/04/20 13:11:23;;;;;;;;;;;16.40;67.10;;;;;;5019378;28;19910;-69
2021/04/20 13:13:51;;;;;;;;;;;16.60;66.50;;;;;;5019320;28;19909;-69
2021/04/20 13:16:21;;;;;;;;;;;16.20;67.70;;;;;;5018955;28;20393;-69
2021/04/20 13:18:47;;;;;;;;;;;16.00;68.10;;;;;;5019119;28;19996;-69
2021/04/20 13:21:12;;;;;;;;;;;15.80;68.40;;;;;;5018824;28;20382;-69
2021/04/20 13:23:43;;;;;;;;;;;15.90;68.30;;;;;;5018230;28;20307;-69
2021/04/20 13:26:11;;;;;;;;;;;16.10;66.20;;;;;;5018976;28;19914;-70
2021/04/20 13:28:41;;;;;;;;;;;15.80;67.10;;;;;;5018854;28;19963;-69
2021/04/20 13:31:12;;;;;;;;;;;15.60;68.10;;;;;;5019252;28;19917;-69
2021/04/20 13:33:37;;;;;;;;;;;15.50;69.40;;;;;;5018589;28;19918;-69
2021/04/20 13:36:04;;;;;;;;;;;15.60;67.00;;;;;;5018207;28;19945;-70
2021/04/20 13:38:30;;;;;;;;;;;15.30;67.80;;;;;;5017869;28;20230;-70
2021/04/20 13:40:59;;;;;;;;;;;15.10;68.80;;;;;;5018852;28;20008;-69
2021/04/20 13:43:26;;;;;;;;;;;15.00;69.70;;;;;;5018381;28;19967;-70
2021/04/20 13:45:52;;;;;;;;;;;14.90;69.60;;;;;;5018795;28;19910;-69
2021/04/20 13:48:22;;;;;;;;;;;15.10;69.60;;;;;;5018606;28;19916;-70
2021/04/20 13:50:48;;;;;;;;;;;15.20;67.80;;;;;;5018716;28;19999;-70
2021/04/20 13:53:32;;;;;;;;;;;15.10;67.70;;;;;;5019969;28;19968;-69
2021/04/20 13:56:03;;;;;;;;;;;15.00;69.10;;;;;;5038360;28;19916;-70
2021/04/20 13:58:30;;;;;;;;;;;15.00;69.70;;;;;;5022368;28;19936;-70
2021/04/20 14:00:58;;;;;;;;;;;15.10;68.50;;;;;;5018566;28;20012;-70
2021/04/20 14:03:34;;;;;;;;;;;15.00;67.50;;;;;;5018914;28;19917;-70
2021/04/20 14:06:00;;;;;;;;;;;14.90;68.60;;;;;;5018489;28;19910;-69
2021/04/20 14:08:29;;;;;;;;;;;14.80;69.50;;;;;;5017240;28;19909;-71
2021/04/20 14:10:56;;;;;;;;;;;15.00;67.80;;;;;;5000927;28;19913;-69
2021/04/20 14:13:23;;;;;;;;;;;15.00;67.90;;;;;;5023157;28;19953;-69
2021/04/20 14:15:53;;;;;;;;;;;15.00;69.50;;;;;;5038311;28;20321;-69
2021/04/20 14:18:22;;;;;;;;;;;15.30;69.20;;;;;;5037538;28;19956;-69
2021/04/20 14:20:48;;;;;;;;;;;15.20;70.10;;;;;;5037575;28;19918;-69
2021/04/20 14:23:15;;;;;;;;;;;15.00;72.00;;;;;;5032754;28;19920;-69
2021/04/20 14:25:40;;;;;;;;;;;14.70;71.20;;;;;;5018166;28;19914;-70
2021/04/20 14:28:06;;;;;;;;;;;14.40;74.90;;;;;;5018031;28;20365;-70
2021/04/20 14:30:33;;;;;;;;;;;14.20;72.60;;;;;;5017844;28;19910;-70
2021/04/20 14:32:59;;;;;;;;;;;14.00;74.90;;;;;;5031803;28;19910;-68
2021/04/20 14:35:32;;;;;;;;;;;14.00;76.90;;;;;;5000425;28;20230;-68
2021/04/20 14:37:58;;;;;;;;;;;14.30;77.50;;;;;;5016541;28;19917;-68